sensor_id;sensor_type;location;lat;lon;timestamp;pressure;altitude;pressure_sealevel;temperature;humidity
59588;BME280;45412;54.472;18.464;2023-09-18T00:00:23;100078.27;;;17.16;100.00
59588;BME280;45412;54.472;18.464;2023-09-18T00:03:29;100076.58;;;17.13;100.00
59588;BME280;45412;54.472;18.464;2023-09-18T00:06:15;100076.78;;;17.13;100.00
59588;BME280;45412;54.472;18.464;2023-09-18T00:09:02;100075.40;;;17.12;100.00
59588;BME280;45412;54.472;18.464;2023-09-18T00:11:48;100073.85;;;17.11;100.00
59588;BME280;45412;54.472;18.464;2023-09-18T00:14:36;100077.85;;;17.11;100.00
59588;BME280;45412;54.472;18.464;2023-09-18T00:17:23;100075.52;;;17.11;100.00
59588;BME280;45412;54.472;18.464;2023-09-18T00:20:10;100080.20;;;17.13;100.00
59588;BME280;45412;54.472;18.464;2023-09-18T00:22:57;100081.18;;;17.13;100.00
59588;BME280;45412;54.472;18.464;2023-09-18T00:25:44;100078.11;;;17.13;100.00
59588;BME280;45412;54.472;18.464;2023-09-18T00:28:30;100078.56;;;17.14;100.00
59588;BME280;45412;54.472;18.464;2023-09-18T00:31:17;100075.35;;;17.16;100.00
59588;BME280;45412;54.472;18.464;2023-09-18T00:34:03;100074.63;;;17.16;100.00
59588;BME280;45412;54.472;18.464;2023-09-18T00:36:50;100072.14;;;17.16;100.00
59588;BME280;45412;54.472;18.464;2023-09-18T00:39:36;100067.20;;;17.13;100.00
59588;BME280;45412;54.472;18.464;2023-09-18T00:42:24;100065.86;;;17.11;100.00
59588;BME280;45412;54.472;18.464;2023-09-18T00:45:10;100063.45;;;17.06;100.00
59588;BME280;45412;54.472;18.464;2023-09-18T00:47:57;100065.77;;;17.03;100.00
59588;BME280;45412;54.472;18.464;2023-09-18T00:50:46;100070.40;;;17.00;100.00
59588;BME280;45412;54.472;18.464;2023-09-18T00:53:32;100073.55;;;16.97;100.00
59588;BME280;45412;54.472;18.464;2023-09-18T00:56:19;100075.53;;;16.95;100.00
59588;BME280;45412;54.472;18.464;2023-09-18T00:59:09;100071.71;;;16.94;100.00
59588;BME280;45412;54.472;18.464;2023-09-18T01:01:56;100073.43;;;16.93;100.00
59588;BME280;45412;54.472;18.464;2023-09-18T01:04:42;100076.31;;;16.91;100.00
59588;BME280;45412;54.472;18.464;2023-09-18T01:07:29;100071.29;;;16.88;100.00
59588;BME280;45412;54.472;18.464;2023-09-18T01:10:16;100069.58;;;16.87;100.00
59588;BME280;45412;54.472;18.464;2023-09-18T01:13:12;100066.39;;;16.87;100.00
59588;BME280;45412;54.472;18.464;2023-09-18T01:16:27;100063.59;;;16.88;100.00
59588;BME280;45412;54.472;18.464;2023-09-18T01:19:17;100061.09;;;16.87;100.00
59588;BME280;45412;54.472;18.464;2023-09-18T01:22:06;100056.56;;;16.88;100.00
59588;BME280;45412;54.472;18.464;2023-09-18T01:24:53;100051.92;;;16.88;100.00
59588;BME280;45412;54.472;18.464;2023-09-18T01:27:40;100046.50;;;16.87;100.00
59588;BME280;45412;54.472;18.464;2023-09-18T01:30:29;100044.11;;;16.85;100.00
59588;BME280;45412;54.472;18.464;2023-09-18T01:33:15;100038.80;;;16.83;100.00
59588;BME280;45412;54.472;18.464;2023-09-18T01:36:03;100033.29;;;16.80;100.00
59588;BME280;45412;54.472;18.464;2023-09-18T01:38:52;100033.68;;;16.79;100.00
59588;BME280;45412;54.472;18.464;2023-09-18T01:41:39;100027.88;;;16.73;100.00
59588;BME280;45412;54.472;18.464;2023-09-18T01:44:26;100035.32;;;16.72;100.00
59588;BME280;45412;54.472;18.464;2023-09-18T01:47:16;100034.68;;;16.67;100.00
59588;BME280;45412;54.472;18.464;2023-09-18T01:50:04;100031.63;;;16.64;100.00
59588;BME280;45412;54.472;18.464;2023-09-18T01:52:54;100026.95;;;16.62;100.00
59588;BME280;45412;54.472;18.464;2023-09-18T01:55:40;100017.99;;;16.59;100.00
59588;BME280;45412;54.472;18.464;2023-09-18T01:58:27;100017.06;;;16.56;100.00
59588;BME280;45412;54.472;18.464;2023-09-18T02:01:13;100014.43;;;16.52;100.00
59588;BME280;45412;54.472;18.464;2023-09-18T02:04:00;100007.90;;;16.49;100.00
59588;BME280;45412;54.472;18.464;2023-09-18T02:07:07;100004.64;;;16.46;100.00
59588;BME280;45412;54.472;18.464;2023-09-18T02:09:54;100010.92;;;16.44;100.00
59588;BME280;45412;54.472;18.464;2023-09-18T02:12:41;100007.52;;;16.42;100.00
59588;BME280;45412;54.472;18.464;2023-09-18T02:15:27;100005.34;;;16.41;100.00
59588;BME280;45412;54.472;18.464;2023-09-18T02:18:13;100004.61;;;16.39;100.00
59588;BME280;45412;54.472;18.464;2023-09-18T02:21:02;100004.32;;;16.39;100.00
59588;BME280;45412;54.472;18.464;2023-09-18T02:23:50;100001.55;;;16.36;100.00
59588;BME280;45412;54.472;18.464;2023-09-18T02:26:37;100005.48;;;16.34;100.00
59588;BME280;45412;54.472;18.464;2023-09-18T02:29:24;100008.02;;;16.34;100.00
59588;BME280;45412;54.472;18.464;2023-09-18T02:32:11;100010.39;;;16.33;100.00
59588;BME280;45412;54.472;18.464;2023-09-18T02:34:57;100001.66;;;16.28;100.00
59588;BME280;45412;54.472;18.464;2023-09-18T02:37:44;100003.52;;;16.31;100.00
59588;BME280;45412;54.472;18.464;2023-09-18T02:40:30;99999.52;;;16.29;100.00
59588;BME280;45412;54.472;18.464;2023-09-18T02:43:17;100000.41;;;16.26;100.00
59588;BME280;45412;54.472;18.464;2023-09-18T02:46:05;99997.30;;;16.23;100.00
59588;BME280;45412;54.472;18.464;2023-09-18T02:48:52;100000.38;;;16.20;100.00
59588;BME280;45412;54.472;18.464;2023-09-18T02:51:39;99996.98;;;16.17;100.00
59588;BME280;45412;54.472;18.464;2023-09-18T02:54:25;99996.39;;;16.16;100.00
59588;BME280;45412;54.472;18.464;2023-09-18T02:57:12;99989.48;;;16.16;100.00
59588;BME280;45412;54.472;18.464;2023-09-18T02:59:59;99984.14;;;16.15;100.00
59588;BME280;45412;54.472;18.464;2023-09-18T03:02:45;99980.94;;;16.15;100.00
59588;BME280;45412;54.472;18.464;2023-09-18T03:05:32;99986.56;;;16.16;100.00
59588;BME280;45412;54.472;18.464;2023-09-18T03:08:18;99985.95;;;16.17;100.00
59588;BME280;45412;54.472;18.464;2023-09-18T03:11:13;99980.23;;;16.15;100.00
59588;BME280;45412;54.472;18.464;2023-09-18T03:13:59;99980.34;;;16.12;100.00
59588;BME280;45412;54.472;18.464;2023-09-18T03:16:46;99975.55;;;16.10;100.00
59588;BME280;45412;54.472;18.464;2023-09-18T03:19:32;99976.23;;;16.09;100.00
59588;BME280;45412;54.472;18.464;2023-09-18T03:22:19;99971.35;;;16.06;100.00
59588;BME280;45412;54.472;18.464;2023-09-18T03:25:06;99970.17;;;16.01;100.00
59588;BME280;45412;54.472;18.464;2023-09-18T03:27:55;99967.57;;;15.99;100.00
59588;BME280;45412;54.472;18.464;2023-09-18T03:30:44;99963.82;;;15.99;100.00
59588;BME280;45412;54.472;18.464;2023-09-18T03:33:30;99957.69;;;15.99;100.00
59588;BME280;45412;54.472;18.464;2023-09-18T03:36:16;99958.49;;;15.95;100.00
59588;BME280;45412;54.472;18.464;2023-09-18T03:39:03;99952.63;;;15.91;100.00
59588;BME280;45412;54.472;18.464;2023-09-18T03:41:51;99952.14;;;15.89;100.00
59588;BME280;45412;54.472;18.464;2023-09-18T03:44:37;99947.96;;;15.86;100.00
59588;BME280;45412;54.472;18.464;2023-09-18T03:47:23;99948.24;;;15.85;100.00
59588;BME280;45412;54.472;18.464;2023-09-18T03:50:10;99942.95;;;15.86;100.00
59588;BME280;45412;54.472;18.464;2023-09-18T03:52:58;99940.15;;;15.86;100.00
59588;BME280;45412;54.472;18.464;2023-09-18T03:55:44;99941.26;;;15.85;100.00
59588;BME280;45412;54.472;18.464;2023-09-18T03:58:30;99936.33;;;15.86;100.00
59588;BME280;45412;54.472;18.464;2023-09-18T04:01:16;99934.13;;;15.85;100.00
59588;BME280;45412;54.472;18.464;2023-09-18T04:04:03;99932.23;;;15.82;100.00
59588;BME280;45412;54.472;18.464;2023-09-18T04:06:51;99924.46;;;15.79;100.00
59588;BME280;45412;54.472;18.464;2023-09-18T04:09:37;99920.02;;;15.77;100.00
59588;BME280;45412;54.472;18.464;2023-09-18T04:12:24;99914.76;;;15.76;100.00
59588;BME280;45412;54.472;18.464;2023-09-18T04:15:14;99909.73;;;15.75;100.00
59588;BME280;45412;54.472;18.464;2023-09-18T04:18:01;99909.59;;;15.74;100.00
59588;BME280;45412;54.472;18.464;2023-09-18T04:20:48;99910.04;;;15.72;100.00
59588;BME280;45412;54.472;18.464;2023-09-18T04:23:37;99905.52;;;15.70;100.00
59588;BME280;45412;54.472;18.464;2023-09-18T04:26:24;99904.13;;;15.68;100.00
59588;BME280;45412;54.472;18.464;2023-09-18T04:29:11;99896.86;;;15.68;100.00
59588;BME280;45412;54.472;18.464;2023-09-18T04:31:57;99896.61;;;15.68;100.00
59588;BME280;45412;54.472;18.464;2023-09-18T04:34:44;99897.54;;;15.70;100.00
59588;BME280;45412;54.472;18.464;2023-09-18T04:37:36;99891.91;;;15.70;100.00
59588;BME280;45412;54.472;18.464;2023-09-18T04:40:24;99889.61;;;15.72;100.00
59588;BME280;45412;54.472;18.464;2023-09-18T04:43:11;99882.87;;;15.71;100.00
59588;BME280;45412;54.472;18.464;2023-09-18T04:45:57;99879.84;;;15.71;100.00
59588;BME280;45412;54.472;18.464;2023-09-18T04:48:44;99880.65;;;15.72;100.00
59588;BME280;45412;54.472;18.464;2023-09-18T04:51:32;99875.08;;;15.74;100.00
59588;BME280;45412;54.472;18.464;2023-09-18T04:54:19;99873.87;;;15.79;100.00
59588;BME280;45412;54.472;18.464;2023-09-18T04:57:05;99876.23;;;15.84;100.00
59588;BME280;45412;54.472;18.464;2023-09-18T04:59:51;99870.21;;;15.87;100.00
59588;BME280;45412;54.472;18.464;2023-09-18T05:02:51;99863.66;;;15.91;100.00
59588;BME280;45412;54.472;18.464;2023-09-18T05:05:38;99863.29;;;15.97;100.00
59588;BME280;45412;54.472;18.464;2023-09-18T05:08:25;99865.34;;;16.03;100.00
59588;BME280;45412;54.472;18.464;2023-09-18T05:11:11;99871.70;;;16.07;100.00
59588;BME280;45412;54.472;18.464;2023-09-18T05:14:00;99871.48;;;16.15;100.00
59588;BME280;45412;54.472;18.464;2023-09-18T05:16:46;99873.58;;;16.24;100.00
59588;BME280;45412;54.472;18.464;2023-09-18T05:19:33;99876.59;;;16.34;100.00
59588;BME280;45412;54.472;18.464;2023-09-18T05:22:19;99873.33;;;16.45;100.00
59588;BME280;45412;54.472;18.464;2023-09-18T05:25:06;99869.15;;;16.54;100.00
59588;BME280;45412;54.472;18.464;2023-09-18T05:27:53;99864.10;;;16.61;100.00
59588;BME280;45412;54.472;18.464;2023-09-18T05:30:43;99860.98;;;16.70;100.00
59588;BME280;45412;54.472;18.464;2023-09-18T05:33:29;99860.66;;;16.80;100.00
59588;BME280;45412;54.472;18.464;2023-09-18T05:36:16;99858.21;;;16.88;100.00
59588;BME280;45412;54.472;18.464;2023-09-18T05:39:05;99851.58;;;16.95;100.00
59588;BME280;45412;54.472;18.464;2023-09-18T05:41:53;99858.29;;;17.03;100.00
59588;BME280;45412;54.472;18.464;2023-09-18T05:44:40;99860.08;;;17.09;100.00
59588;BME280;45412;54.472;18.464;2023-09-18T05:47:26;99858.62;;;17.18;100.00
59588;BME280;45412;54.472;18.464;2023-09-18T05:50:13;99859.11;;;17.23;100.00
59588;BME280;45412;54.472;18.464;2023-09-18T05:53:02;99860.27;;;17.29;100.00
59588;BME280;45412;54.472;18.464;2023-09-18T05:55:52;99856.55;;;17.35;100.00
59588;BME280;45412;54.472;18.464;2023-09-18T05:58:38;99860.38;;;17.43;100.00
59588;BME280;45412;54.472;18.464;2023-09-18T06:01:25;99857.85;;;17.49;100.00
59588;BME280;45412;54.472;18.464;2023-09-18T06:04:12;99855.97;;;17.55;100.00
59588;BME280;45412;54.472;18.464;2023-09-18T06:06:59;99857.60;;;17.61;100.00
59588;BME280;45412;54.472;18.464;2023-09-18T06:09:45;99859.64;;;17.69;100.00
59588;BME280;45412;54.472;18.464;2023-09-18T06:12:32;99858.55;;;17.81;100.00
59588;BME280;45412;54.472;18.464;2023-09-18T06:15:19;99855.55;;;17.92;100.00
59588;BME280;45412;54.472;18.464;2023-09-18T06:18:05;99856.16;;;18.05;100.00
59588;BME280;45412;54.472;18.464;2023-09-18T06:20:52;99851.94;;;18.19;100.00
59588;BME280;45412;54.472;18.464;2023-09-18T06:23:38;99852.89;;;18.36;99.58
59588;BME280;45412;54.472;18.464;2023-09-18T06:26:25;99850.38;;;18.64;98.57
59588;BME280;45412;54.472;18.464;2023-09-18T06:29:11;99845.92;;;19.19;96.40
59588;BME280;45412;54.472;18.464;2023-09-18T06:31:58;99836.63;;;20.25;92.59
59588;BME280;45412;54.472;18.464;2023-09-18T06:34:44;99832.80;;;21.75;86.81
59588;BME280;45412;54.472;18.464;2023-09-18T06:37:31;99830.42;;;23.24;82.23
59588;BME280;45412;54.472;18.464;2023-09-18T06:40:17;99820.57;;;24.54;74.05
59588;BME280;45412;54.472;18.464;2023-09-18T06:43:04;99816.77;;;25.47;67.50
59588;BME280;45412;54.472;18.464;2023-09-18T06:45:51;99811.88;;;26.39;62.01
59588;BME280;45412;54.472;18.464;2023-09-18T06:48:37;99804.24;;;26.98;59.01
59588;BME280;45412;54.472;18.464;2023-09-18T06:51:23;99803.67;;;27.65;56.17
59588;BME280;45412;54.472;18.464;2023-09-18T06:54:28;99795.77;;;28.74;53.15
59588;BME280;45412;54.472;18.464;2023-09-18T06:57:14;99797.37;;;29.58;51.10
59588;BME280;45412;54.472;18.464;2023-09-18T07:00:00;99798.97;;;30.43;48.90
59588;BME280;45412;54.472;18.464;2023-09-18T07:02:47;99798.39;;;31.28;45.77
59588;BME280;45412;54.472;18.464;2023-09-18T07:05:33;99800.75;;;31.84;44.13
59588;BME280;45412;54.472;18.464;2023-09-18T07:08:20;99804.11;;;32.29;41.03
59588;BME280;45412;54.472;18.464;2023-09-18T07:11:09;99802.20;;;32.53;39.47
59588;BME280;45412;54.472;18.464;2023-09-18T07:13:56;99799.32;;;32.66;38.94
59588;BME280;45412;54.472;18.464;2023-09-18T07:16:43;99787.95;;;33.06;38.92
59588;BME280;45412;54.472;18.464;2023-09-18T07:19:29;99787.83;;;33.52;38.08
59588;BME280;45412;54.472;18.464;2023-09-18T07:22:15;99787.96;;;33.65;36.13
59588;BME280;45412;54.472;18.464;2023-09-18T07:25:02;99778.79;;;33.79;36.00
59588;BME280;45412;54.472;18.464;2023-09-18T07:27:49;99777.33;;;34.04;36.23
59588;BME280;45412;54.472;18.464;2023-09-18T07:30:36;99776.99;;;34.31;35.19
59588;BME280;45412;54.472;18.464;2023-09-18T07:33:23;99777.75;;;34.55;34.84
59588;BME280;45412;54.472;18.464;2023-09-18T07:36:10;99769.95;;;34.82;34.09
59588;BME280;45412;54.472;18.464;2023-09-18T07:38:56;99766.06;;;35.17;33.71
59588;BME280;45412;54.472;18.464;2023-09-18T07:41:42;99766.19;;;35.11;32.81
59588;BME280;45412;54.472;18.464;2023-09-18T07:44:31;99765.14;;;35.21;32.89
59588;BME280;45412;54.472;18.464;2023-09-18T07:47:19;99768.16;;;35.54;33.00
59588;BME280;45412;54.472;18.464;2023-09-18T07:50:06;99767.99;;;35.85;32.12
59588;BME280;45412;54.472;18.464;2023-09-18T07:52:52;99768.92;;;35.94;31.47
59588;BME280;45412;54.472;18.464;2023-09-18T07:55:38;99763.18;;;36.07;31.57
59588;BME280;45412;54.472;18.464;2023-09-18T07:58:25;99756.81;;;36.28;30.96
59588;BME280;45412;54.472;18.464;2023-09-18T08:01:13;99755.64;;;36.08;30.95
59588;BME280;45412;54.472;18.464;2023-09-18T08:04:02;99749.88;;;36.00;30.35
59588;BME280;45412;54.472;18.464;2023-09-18T08:06:49;99748.27;;;35.97;30.82
59588;BME280;45412;54.472;18.464;2023-09-18T08:09:35;99742.55;;;36.14;30.81
59588;BME280;45412;54.472;18.464;2023-09-18T08:12:25;99745.48;;;36.13;30.42
59588;BME280;45412;54.472;18.464;2023-09-18T08:15:11;99743.29;;;36.04;30.59
59588;BME280;45412;54.472;18.464;2023-09-18T08:17:57;99737.95;;;36.22;30.54
59588;BME280;45412;54.472;18.464;2023-09-18T08:20:46;99730.39;;;36.62;29.45
59588;BME280;45412;54.472;18.464;2023-09-18T08:23:32;99726.17;;;36.75;28.87
59588;BME280;45412;54.472;18.464;2023-09-18T08:26:19;99719.51;;;36.71;29.19
59588;BME280;45412;54.472;18.464;2023-09-18T08:29:05;99714.63;;;36.67;28.99
59588;BME280;45412;54.472;18.464;2023-09-18T08:31:51;99711.64;;;36.86;29.13
59588;BME280;45412;54.472;18.464;2023-09-18T08:34:37;99712.57;;;36.83;28.57
59588;BME280;45412;54.472;18.464;2023-09-18T08:37:24;99706.84;;;36.88;28.81
59588;BME280;45412;54.472;18.464;2023-09-18T08:40:13;99710.08;;;37.17;28.49
59588;BME280;45412;54.472;18.464;2023-09-18T08:43:04;99708.10;;;37.38;27.95
59588;BME280;45412;54.472;18.464;2023-09-18T08:45:53;99704.06;;;37.43;27.91
59588;BME280;45412;54.472;18.464;2023-09-18T08:48:40;99703.63;;;37.12;27.93
59588;BME280;45412;54.472;18.464;2023-09-18T08:51:28;99703.25;;;37.08;28.02
59588;BME280;45412;54.472;18.464;2023-09-18T08:54:15;99701.88;;;37.11;28.44
59588;BME280;45412;54.472;18.464;2023-09-18T08:57:03;99695.64;;;37.44;28.35
59588;BME280;45412;54.472;18.464;2023-09-18T08:59:54;99695.13;;;37.65;27.38
59588;BME280;45412;54.472;18.464;2023-09-18T09:02:41;99694.02;;;37.60;27.24
59588;BME280;45412;54.472;18.464;2023-09-18T09:05:27;99695.91;;;37.16;27.82
59588;BME280;45412;54.472;18.464;2023-09-18T09:08:15;99684.60;;;37.00;28.55
59588;BME280;45412;54.472;18.464;2023-09-18T09:11:03;99687.14;;;37.19;28.59
59588;BME280;45412;54.472;18.464;2023-09-18T09:14:13;99683.38;;;37.43;28.50
59588;BME280;45412;54.472;18.464;2023-09-18T09:17:18;99673.92;;;37.19;28.16
59588;BME280;45412;54.472;18.464;2023-09-18T09:20:09;99665.39;;;36.87;28.70
59588;BME280;45412;54.472;18.464;2023-09-18T09:23:02;99662.89;;;36.68;28.87
59588;BME280;45412;54.472;18.464;2023-09-18T09:25:51;99657.36;;;36.51;28.78
59588;BME280;45412;54.472;18.464;2023-09-18T09:28:38;99648.45;;;36.55;29.43
59588;BME280;45412;54.472;18.464;2023-09-18T09:31:29;99645.02;;;36.70;28.97
59588;BME280;45412;54.472;18.464;2023-09-18T09:34:26;99643.94;;;36.60;28.62
59588;BME280;45412;54.472;18.464;2023-09-18T09:37:16;99642.48;;;36.73;28.40
59588;BME280;45412;54.472;18.464;2023-09-18T09:40:04;99643.27;;;36.95;28.67
59588;BME280;45412;54.472;18.464;2023-09-18T09:42:57;99644.86;;;36.99;28.14
59588;BME280;45412;54.472;18.464;2023-09-18T09:45:46;99641.23;;;37.09;28.01
59588;BME280;45412;54.472;18.464;2023-09-18T09:48:32;99638.27;;;37.30;27.78
59588;BME280;45412;54.472;18.464;2023-09-18T09:51:19;99634.61;;;37.55;27.43
59588;BME280;45412;54.472;18.464;2023-09-18T09:54:09;99633.04;;;37.70;27.17
59588;BME280;45412;54.472;18.464;2023-09-18T09:57:02;99624.28;;;37.72;26.97
59588;BME280;45412;54.472;18.464;2023-09-18T09:59:48;99617.48;;;37.75;26.76
59588;BME280;45412;54.472;18.464;2023-09-18T10:02:35;99612.39;;;37.45;27.04
59588;BME280;45412;54.472;18.464;2023-09-18T10:05:24;99602.70;;;37.17;27.53
59588;BME280;45412;54.472;18.464;2023-09-18T10:08:24;99598.59;;;36.97;27.60
59588;BME280;45412;54.472;18.464;2023-09-18T10:11:15;99595.48;;;36.58;27.89
59588;BME280;45412;54.472;18.464;2023-09-18T10:14:16;99589.29;;;36.51;28.11
59588;BME280;45412;54.472;18.464;2023-09-18T10:17:18;99590.61;;;36.70;28.22
59588;BME280;45412;54.472;18.464;2023-09-18T10:20:08;99583.64;;;37.27;27.85
59588;BME280;45412;54.472;18.464;2023-09-18T10:22:59;99583.20;;;37.43;27.40
59588;BME280;45412;54.472;18.464;2023-09-18T10:25:48;99574.34;;;37.78;27.35
59588;BME280;45412;54.472;18.464;2023-09-18T10:28:37;99576.38;;;38.17;26.82
59588;BME280;45412;54.472;18.464;2023-09-18T10:31:26;99573.89;;;38.14;26.56
59588;BME280;45412;54.472;18.464;2023-09-18T10:34:15;99568.77;;;37.56;26.95
59588;BME280;45412;54.472;18.464;2023-09-18T10:37:04;99561.27;;;37.71;27.28
59588;BME280;45412;54.472;18.464;2023-09-18T10:39:54;99571.42;;;37.49;27.29
59588;BME280;45412;54.472;18.464;2023-09-18T10:42:45;99575.52;;;37.03;27.59
59588;BME280;45412;54.472;18.464;2023-09-18T10:45:32;99563.77;;;36.56;28.47
59588;BME280;45412;54.472;18.464;2023-09-18T10:48:19;99554.25;;;36.69;28.47
59588;BME280;45412;54.472;18.464;2023-09-18T10:51:07;99555.88;;;36.41;28.77
59588;BME280;45412;54.472;18.464;2023-09-18T10:53:53;99545.72;;;36.08;29.21
59588;BME280;45412;54.472;18.464;2023-09-18T10:56:42;99531.90;;;35.94;29.61
59588;BME280;45412;54.472;18.464;2023-09-18T10:59:30;99540.83;;;35.77;29.78
59588;BME280;45412;54.472;18.464;2023-09-18T11:02:17;99542.98;;;35.34;30.50
59588;BME280;45412;54.472;18.464;2023-09-18T11:05:05;99542.13;;;34.94;31.14
59588;BME280;45412;54.472;18.464;2023-09-18T11:08:35;99533.36;;;35.10;31.29
59588;BME280;45412;54.472;18.464;2023-09-18T11:11:22;99533.89;;;35.30;30.87
59588;BME280;45412;54.472;18.464;2023-09-18T11:14:12;99535.92;;;34.90;31.57
59588;BME280;45412;54.472;18.464;2023-09-18T11:16:58;99531.60;;;34.53;31.94
59588;BME280;45412;54.472;18.464;2023-09-18T11:19:46;99525.96;;;34.47;32.02
59588;BME280;45412;54.472;18.464;2023-09-18T11:22:32;99518.86;;;33.66;33.06
59588;BME280;45412;54.472;18.464;2023-09-18T11:28:26;99506.45;;;32.83;34.39
59588;BME280;45412;54.472;18.464;2023-09-18T11:31:12;99502.85;;;31.73;36.16
59588;BME280;45412;54.472;18.464;2023-09-18T11:33:58;99495.82;;;31.85;35.93
59588;BME280;45412;54.472;18.464;2023-09-18T11:36:44;99490.10;;;32.00;36.02
59588;BME280;45412;54.472;18.464;2023-09-18T11:39:40;99490.38;;;31.57;36.22
59588;BME280;45412;54.472;18.464;2023-09-18T11:42:26;99485.58;;;31.00;37.56
59588;BME280;45412;54.472;18.464;2023-09-18T11:45:18;99491.31;;;30.53;39.07
59588;BME280;45412;54.472;18.464;2023-09-18T11:48:05;99480.75;;;30.09;39.74
59588;BME280;45412;54.472;18.464;2023-09-18T11:50:52;99473.55;;;29.71;39.96
59588;BME280;45412;54.472;18.464;2023-09-18T11:53:41;99471.92;;;29.67;40.46
59588;BME280;45412;54.472;18.464;2023-09-18T11:56:30;99472.55;;;29.64;40.22
59588;BME280;45412;54.472;18.464;2023-09-18T11:59:16;99470.52;;;29.75;39.82
59588;BME280;45412;54.472;18.464;2023-09-18T12:02:05;99464.01;;;29.88;40.10
59588;BME280;45412;54.472;18.464;2023-09-18T12:04:52;99463.08;;;30.22;40.09
59588;BME280;45412;54.472;18.464;2023-09-18T12:07:42;99464.87;;;30.29;39.63
59588;BME280;45412;54.472;18.464;2023-09-18T12:10:32;99458.90;;;30.08;39.12
59588;BME280;45412;54.472;18.464;2023-09-18T12:13:21;99452.95;;;30.12;39.58
59588;BME280;45412;54.472;18.464;2023-09-18T12:16:07;99448.27;;;30.02;39.28
59588;BME280;45412;54.472;18.464;2023-09-18T12:18:55;99440.02;;;29.60;39.77
59588;BME280;45412;54.472;18.464;2023-09-18T12:21:46;99447.11;;;29.22;40.70
59588;BME280;45412;54.472;18.464;2023-09-18T12:24:33;99436.52;;;28.92;41.26
59588;BME280;45412;54.472;18.464;2023-09-18T12:27:19;99427.43;;;28.77;42.05
59588;BME280;45412;54.472;18.464;2023-09-18T12:30:07;99427.52;;;28.63;42.09
59588;BME280;45412;54.472;18.464;2023-09-18T12:32:57;99429.25;;;28.34;42.20
59588;BME280;45412;54.472;18.464;2023-09-18T12:35:44;99432.83;;;27.94;42.69
59588;BME280;45412;54.472;18.464;2023-09-18T12:38:33;99423.70;;;27.67;42.78
59588;BME280;45412;54.472;18.464;2023-09-18T12:41:20;99416.74;;;27.40;43.28
59588;BME280;45412;54.472;18.464;2023-09-18T12:44:07;99413.12;;;27.16;43.18
59588;BME280;45412;54.472;18.464;2023-09-18T12:46:53;99419.44;;;27.04;43.31
59588;BME280;45412;54.472;18.464;2023-09-18T12:49:40;99412.46;;;26.98;43.42
59588;BME280;45412;54.472;18.464;2023-09-18T12:52:26;99401.69;;;27.04;43.25
59588;BME280;45412;54.472;18.464;2023-09-18T12:55:25;99400.76;;;27.03;43.68
59588;BME280;45412;54.472;18.464;2023-09-18T12:58:13;99386.97;;;27.06;43.55
59588;BME280;45412;54.472;18.464;2023-09-18T13:01:04;99390.14;;;27.05;43.67
59588;BME280;45412;54.472;18.464;2023-09-18T13:03:54;99383.33;;;26.86;43.10
59588;BME280;45412;54.472;18.464;2023-09-18T13:06:45;99377.29;;;26.69;43.62
59588;BME280;45412;54.472;18.464;2023-09-18T13:09:31;99378.55;;;26.64;44.60
59588;BME280;45412;54.472;18.464;2023-09-18T13:12:18;99372.17;;;26.66;45.11
59588;BME280;45412;54.472;18.464;2023-09-18T13:15:04;99367.56;;;26.73;45.64
59588;BME280;45412;54.472;18.464;2023-09-18T13:17:56;99364.33;;;26.83;45.43
59588;BME280;45412;54.472;18.464;2023-09-18T13:20:43;99361.90;;;26.90;45.06
59588;BME280;45412;54.472;18.464;2023-09-18T13:23:31;99359.59;;;26.83;44.53
59588;BME280;45412;54.472;18.464;2023-09-18T13:26:18;99357.66;;;26.85;44.58
59588;BME280;45412;54.472;18.464;2023-09-18T13:29:05;99349.05;;;26.90;44.33
59588;BME280;45412;54.472;18.464;2023-09-18T13:31:51;99341.23;;;27.00;44.63
59588;BME280;45412;54.472;18.464;2023-09-18T13:34:38;99330.62;;;27.01;44.66
59588;BME280;45412;54.472;18.464;2023-09-18T13:37:25;99327.61;;;27.04;44.56
59588;BME280;45412;54.472;18.464;2023-09-18T13:40:13;99327.52;;;27.00;44.32
59588;BME280;45412;54.472;18.464;2023-09-18T13:42:59;99328.75;;;26.95;44.03
59588;BME280;45412;54.472;18.464;2023-09-18T13:45:46;99322.27;;;26.92;43.86
59588;BME280;45412;54.472;18.464;2023-09-18T13:48:32;99316.15;;;26.93;43.89
59588;BME280;45412;54.472;18.464;2023-09-18T13:51:19;99309.66;;;26.93;44.19
59588;BME280;45412;54.472;18.464;2023-09-18T13:54:05;99309.77;;;26.96;44.32
59588;BME280;45412;54.472;18.464;2023-09-18T13:56:53;99308.48;;;26.98;44.44
59588;BME280;45412;54.472;18.464;2023-09-18T13:59:48;99307.36;;;26.99;44.67
59588;BME280;45412;54.472;18.464;2023-09-18T14:02:35;99304.57;;;26.83;44.74
59588;BME280;45412;54.472;18.464;2023-09-18T14:05:21;99303.63;;;26.73;44.84
59588;BME280;45412;54.472;18.464;2023-09-18T14:08:08;99299.97;;;26.64;44.99
59588;BME280;45412;54.472;18.464;2023-09-18T14:10:54;99298.63;;;26.53;45.20
59588;BME280;45412;54.472;18.464;2023-09-18T14:13:41;99291.87;;;26.43;45.44
59588;BME280;45412;54.472;18.464;2023-09-18T14:16:28;99289.11;;;26.44;45.39
59588;BME280;45412;54.472;18.464;2023-09-18T14:19:15;99286.71;;;26.50;45.13
59588;BME280;45412;54.472;18.464;2023-09-18T14:22:01;99285.13;;;26.54;45.09
59588;BME280;45412;54.472;18.464;2023-09-18T14:24:49;99272.07;;;26.50;45.20
59588;BME280;45412;54.472;18.464;2023-09-18T14:27:36;99273.73;;;26.47;45.16
59588;BME280;45412;54.472;18.464;2023-09-18T14:30:22;99277.23;;;26.46;45.39
59588;BME280;45412;54.472;18.464;2023-09-18T14:33:16;99271.05;;;26.41;45.44